Deweyville, Utah
Current Conditions -  °F | °C
As of 1:35 AM on Sunday 23 Nov 2014 (Local Time) from KBMC Reporting Station
Broken Clouds Broken Clouds  
Wind Chill: 37°   Ceiling: 5000
Heat Index: 37°   Visibility: 10mi
Dew Point: 28°   Wind: 0mph
Humidity: 71%   Direction: NA
Pressure: 29.96"   Gusts: NA
Location:  41.71°N, 112.09°W
Report Text: KBMC 230835Z AUTO 00000KT 10SM SCT046 BKN050 BKN120 03/M02 A2996 RMK AO1 T00271021
Loading
Personal Weather Stations






























Interactive Weather Map New forecast layout! Learn more

10-Day Weather Forecast

Advertisements
Track Severe Weather on mobile